Brevard, North Carolina
Current Conditions -  °F | °C
As of 6:54 PM on Wednesday 28 Jan 2015 (Local Time) from KAVL Reporting Station
Clear Clear  
Wind Chill: 31°   Ceiling: Unl
Heat Index: 38°   Visibility: 10mi
Dew Point: 15°   Wind: 9mph
Humidity: 39%   Direction: 340°NNW
Pressure: 30.22"   Gusts: NA
Location:  35.23°N, 82.73°W
Report Text: KAVL 282354Z 34008KT 10SM CLR 03/M09 A3022 RMK AO2 SLP248 T00331094 10078 20022 53010
Loading
Personal Weather Stations






























Interactive Weather Map New forecast layout! Learn more

10-Day Weather Forecast

Advertisements
Track Severe Weather on mobile